Time;durP1;ratioP1;P1;durP2;ratioP2;P2;SDS_P1;SDS_P2;PMS_P1;PMS_P2;Temp;Humidity;BMP_temperature;BMP_pressure;BME280_temperature;BME280_humidity;BME280_pressure;Samples;Min_cycle;Max_cycle;Signal;HPM_P1;HPM_P2
2022/01/23 00:00:48;;;;;;;63.88;35.65;;;5.10;99.90;;;;;;4955676;29;20169;-80
2022/01/23 00:03:18;;;;;;;63.00;33.83;;;5.20;99.90;;;;;;4956569;28;20208;-79
2022/01/23 00:05:47;;;;;;;65.97;35.33;;;5.20;99.90;;;;;;4955513;28;20513;-78
2022/01/23 00:08:15;;;;;;;67.70;36.38;;;5.10;99.90;;;;;;4954412;29;20212;-79
2022/01/23 00:10:41;;;;;;;63.70;34.63;;;5.20;99.90;;;;;;4956908;28;20182;-77
2022/01/23 00:17:12;;;;;;;64.57;33.67;;;5.20;99.90;;;;;;4955358;29;20201;-78
2022/01/23 00:18:38;;;;;;;60.95;32.75;;;5.20;99.90;;;;;;4955025;29;20236;-80
2022/01/23 00:21:04;;;;;;;56.33;32.57;;;5.20;99.90;;;;;;4938447;29;20259;-78
2022/01/23 00:30:18;;;;;;;62.10;34.07;;;5.10;99.90;;;;;;4955249;29;20571;-78
2022/01/23 00:31:46;;;;;;;61.70;33.13;;;5.30;99.90;;;;;;4956254;29;20560;-78
2022/01/23 00:34:12;;;;;;;62.63;33.40;;;5.30;99.90;;;;;;4956546;29;20173;-78
2022/01/23 00:36:38;;;;;;;63.80;33.47;;;5.30;99.90;;;;;;4955382;29;20181;-79
2022/01/23 00:39:04;;;;;;;65.20;34.17;;;5.30;99.90;;;;;;4956752;29;20185;-78
2022/01/23 00:41:30;;;;;;;61.50;32.35;;;5.30;99.90;;;;;;4956359;28;20205;-76
2022/01/23 00:43:55;;;;;;;55.70;31.43;;;5.30;99.90;;;;;;4938312;29;20189;-78
2022/01/23 00:46:29;;;;;;;54.83;32.30;;;5.40;99.90;;;;;;4955125;29;20189;-79
2022/01/23 00:51:28;;;;;;;57.72;33.17;;;5.40;99.90;;;;;;4955464;28;20209;-78
2022/01/23 00:53:55;;;;;;;54.40;31.98;;;5.30;99.90;;;;;;4954312;29;20249;-78
2022/01/23 00:56:21;;;;;;;59.97;33.17;;;5.40;99.90;;;;;;4955469;28;20199;-80
2022/01/23 00:58:47;;;;;;;65.37;35.63;;;5.30;99.90;;;;;;4954485;29;20769;-79
2022/01/23 01:01:14;;;;;;;63.83;34.17;;;5.40;99.90;;;;;;4954185;29;20268;-77
2022/01/23 01:03:39;;;;;;;60.70;32.90;;;5.40;99.90;;;;;;4957798;28;20181;-78
2022/01/23 01:06:05;;;;;;;57.27;32.20;;;5.30;99.90;;;;;;4960037;29;20216;-77
2022/01/23 01:08:31;;;;;;;57.17;31.77;;;5.30;99.90;;;;;;4960055;29;20698;-79
2022/01/23 01:11:33;;;;;;;63.35;34.45;;;5.30;99.90;;;;;;4958782;29;20646;-79
2022/01/23 01:35:33;;;;;;;60.75;33.88;;;5.20;99.90;;;;;;4944132;28;20608;-80
2022/01/23 01:37:59;;;;;;;57.10;31.30;;;5.10;99.90;;;;;;4959620;28;20185;-79
2022/01/23 01:40:26;;;;;;;62.20;33.90;;;5.10;99.90;;;;;;4958098;29;20276;-77
2022/01/23 01:42:52;;;;;;;60.72;33.13;;;5.10;99.90;;;;;;4959017;29;20436;-78
2022/01/23 01:45:26;;;;;;;58.35;33.72;;;5.20;99.90;;;;;;4958849;28;20188;-78
2022/01/23 01:47:54;;;;;;;55.88;31.00;;;5.20;99.90;;;;;;4959288;28;20200;-79
2022/01/23 01:50:20;;;;;;;53.15;31.70;;;5.30;99.90;;;;;;4959040;29;20236;-77
2022/01/23 01:52:46;;;;;;;57.23;31.47;;;5.20;99.90;;;;;;4958331;29;20189;-77
2022/01/23 01:55:18;;;;;;;56.25;32.63;;;5.20;99.90;;;;;;4958043;29;20184;-80
2022/01/23 01:57:52;;;;;;;58.40;31.50;;;5.30;99.90;;;;;;4959069;28;20177;-78
2022/01/23 02:08:27;;;;;;;63.85;32.38;;;5.10;99.90;;;;;;4958744;29;20303;-79
2022/01/23 02:11:01;;;;;;;61.72;33.55;;;5.20;99.90;;;;;;4955936;29;20185;-79
2022/01/23 02:24:10;;;;;;;49.17;28.90;;;5.20;99.90;;;;;;4957209;29;20624;-79
2022/01/23 02:51:55;;;;;;;54.75;30.30;;;5.10;99.90;;;;;;4956590;29;20572;-79
2022/01/23 02:55:11;;;;;;;52.55;31.20;;;5.10;99.90;;;;;;4956593;28;20192;-79
2022/01/23 02:57:08;;;;;;;57.28;32.30;;;5.10;99.90;;;;;;4949165;29;20197;-80
2022/01/23 02:59:36;;;;;;;59.47;30.67;;;5.10;99.90;;;;;;4956312;28;20272;-77
2022/01/23 03:04:37;;;;;;;60.65;34.22;;;5.10;99.90;;;;;;4956524;28;20276;-77
2022/01/23 03:10:03;;;;;;;57.50;32.20;;;5.10;99.90;;;;;;4956077;28;20173;-78
2022/01/23 03:15:46;;;;;;;58.25;32.28;;;5.10;99.90;;;;;;4956490;29;20232;-78
2022/01/23 03:34:23;;;;;;;67.60;36.40;;;5.10;99.90;;;;;;4947766;28;20181;-78
2022/01/23 03:36:49;;;;;;;60.53;33.15;;;5.00;99.90;;;;;;4955920;28;20780;-79
2022/01/23 03:39:15;;;;;;;76.50;37.03;;;5.10;99.90;;;;;;4955888;29;20189;-78
2022/01/23 03:41:43;;;;;;;63.10;32.53;;;5.00;99.90;;;;;;4955270;29;20201;-79
2022/01/23 03:44:10;;;;;;;65.15;36.83;;;5.00;99.90;;;;;;4955713;28;20264;-76
2022/01/23 03:47:12;;;;;;;64.72;35.00;;;4.90;99.90;;;;;;4955594;28;20634;-77
2022/01/23 03:49:35;;;;;;;64.50;34.67;;;4.90;99.90;;;;;;4954437;29;20689;-78
2022/01/23 03:52:07;;;;;;;62.77;33.43;;;4.90;99.90;;;;;;4955055;29;20213;-76
2022/01/23 03:54:33;;;;;;;63.03;31.98;;;4.90;99.90;;;;;;4955827;28;20205;-77
2022/01/23 03:57:01;;;;;;;62.60;34.90;;;4.90;99.90;;;;;;4955633;28;20596;-77
2022/01/23 03:59:29;;;;;;;64.97;34.28;;;4.90;99.90;;;;;;4955598;28;20185;-79
2022/01/23 04:01:55;;;;;;;56.08;31.15;;;5.00;99.90;;;;;;4954954;28;20205;-79
2022/01/23 04:04:40;;;;;;;63.27;32.50;;;5.00;99.90;;;;;;4955718;29;20177;-77
2022/01/23 04:07:19;;;;;;;67.72;37.33;;;5.00;99.90;;;;;;4956371;28;20421;-77
2022/01/23 04:09:45;;;;;;;64.00;33.05;;;5.10;99.90;;;;;;4940617;29;20194;-78
2022/01/23 04:12:27;;;;;;;64.30;33.42;;;5.10;99.90;;;;;;4954914;28;20211;-77
2022/01/23 04:15:08;;;;;;;58.15;31.33;;;5.00;99.90;;;;;;4955359;28;20232;-79
2022/01/23 04:20:33;;;;;;;59.72;32.15;;;5.00;99.90;;;;;;4955388;29;20236;-80
2022/01/23 04:34:09;;;;;;;60.47;32.67;;;5.00;99.90;;;;;;4955147;29;20307;-77
2022/01/23 04:45:20;;;;;;;59.03;31.33;;;5.00;99.90;;;;;;4959139;29;20284;-78
2022/01/23 05:01:27;;;;;;;57.85;31.80;;;5.00;99.90;;;;;;4958548;29;20187;-77
2022/01/23 05:04:10;;;;;;;60.92;31.25;;;5.00;99.90;;;;;;4958658;28;20185;-79
2022/01/23 05:06:46;;;;;;;53.60;31.35;;;5.00;99.90;;;;;;4957591;29;20235;-79
2022/01/23 05:09:12;;;;;;;58.08;31.90;;;4.90;99.90;;;;;;4958591;28;20344;-79
2022/01/23 05:11:43;;;;;;;54.67;30.80;;;5.00;99.90;;;;;;4958226;28;20221;-77
2022/01/23 05:14:09;;;;;;;64.55;32.25;;;5.00;99.90;;;;;;4957194;29;20174;-79
2022/01/23 05:16:35;;;;;;;53.83;30.90;;;5.00;99.90;;;;;;4958230;29;20185;-77
2022/01/23 05:19:02;;;;;;;59.47;33.10;;;4.90;99.90;;;;;;4957340;29;20440;-76
2022/01/23 05:24:13;;;;;;;62.63;30.70;;;5.00;99.90;;;;;;4958051;29;20200;-78
2022/01/23 05:26:44;;;;;;;66.55;33.90;;;4.90;99.90;;;;;;4957972;28;20184;-79
2022/01/23 05:29:11;;;;;;;58.67;31.52;;;5.00;99.90;;;;;;4941565;29;20783;-77
2022/01/23 05:31:37;;;;;;;60.30;32.28;;;5.00;99.90;;;;;;4956487;29;20216;-78
2022/01/23 05:34:03;;;;;;;66.73;33.77;;;4.90;99.90;;;;;;4956987;29;20264;-80
2022/01/23 05:36:28;;;;;;;58.92;34.92;;;4.90;99.90;;;;;;4956969;29;20173;-78
2022/01/23 05:38:54;;;;;;;67.27;32.50;;;4.80;99.90;;;;;;4958080;29;20601;-79
2022/01/23 05:41:20;;;;;;;63.33;33.93;;;4.90;99.90;;;;;;4957617;29;20209;-78
2022/01/23 05:43:46;;;;;;;60.60;32.90;;;4.90;99.90;;;;;;4957824;28;20178;-78
2022/01/23 05:46:12;;;;;;;61.60;34.10;;;4.90;99.90;;;;;;4957817;29;20186;-77
2022/01/23 05:48:37;;;;;;;57.00;31.60;;;4.90;99.90;;;;;;4957214;28;20605;-78
2022/01/23 05:51:03;;;;;;;55.13;31.00;;;4.90;99.90;;;;;;4957290;29;20594;-78
2022/01/23 05:53:29;;;;;;;60.97;31.50;;;4.90;99.90;;;;;;4957693;28;20197;-79
2022/01/23 05:55:55;;;;;;;62.90;31.77;;;4.90;99.90;;;;;;4957794;29;20181;-79
2022/01/23 05:58:21;;;;;;;61.50;34.47;;;4.90;99.90;;;;;;4957572;28;20528;-77
2022/01/23 06:00:46;;;;;;;62.60;33.17;;;4.90;99.90;;;;;;4956180;29;20195;-77
2022/01/23 06:03:12;;;;;;;65.00;34.90;;;4.90;99.90;;;;;;4957622;29;20208;-78
2022/01/23 06:05:37;;;;;;;61.10;34.50;;;4.90;99.90;;;;;;4957654;29;20274;-79
2022/01/23 06:08:03;;;;;;;55.33;32.13;;;4.90;99.90;;;;;;4957304;29;20208;-77
2022/01/23 06:10:35;;;;;;;66.33;32.17;;;4.90;99.90;;;;;;4957397;28;20177;-79
2022/01/23 06:13:02;;;;;;;59.67;32.10;;;4.80;99.90;;;;;;4956940;28;20524;-77
2022/01/23 06:15:27;;;;;;;63.17;32.63;;;4.70;99.90;;;;;;4957236;28;20593;-78
2022/01/23 06:17:53;;;;;;;61.80;32.37;;;4.70;99.90;;;;;;4955943;29;20186;-79
2022/01/23 06:20:18;;;;;;;58.37;33.13;;;4.70;99.90;;;;;;4957228;29;20635;-79
2022/01/23 06:22:46;;;;;;;65.03;34.30;;;4.70;99.90;;;;;;4956546;29;20205;-77
2022/01/23 06:25:14;;;;;;;69.75;32.08;;;4.70;99.90;;;;;;4955808;29;20182;-78
2022/01/23 06:27:40;;;;;;;55.88;33.63;;;4.70;99.90;;;;;;4956990;28;20311;-77
2022/01/23 06:30:06;;;;;;;62.85;32.28;;;4.70;99.90;;;;;;4956975;28;20166;-77
2022/01/23 06:32:33;;;;;;;61.40;33.45;;;4.70;99.90;;;;;;4956485;28;20568;-78
2022/01/23 06:34:58;;;;;;;59.17;32.20;;;4.80;99.90;;;;;;4956881;28;20200;-78
2022/01/23 06:37:24;;;;;;;66.00;33.17;;;4.80;99.90;;;;;;4955778;29;20272;-79
2022/01/23 06:39:50;;;;;;;63.47;33.17;;;4.70;99.90;;;;;;4956837;29;20178;-78
2022/01/23 06:42:16;;;;;;;64.70;31.98;;;4.70;99.90;;;;;;4956503;28;20198;-78
2022/01/23 06:44:42;;;;;;;60.20;32.10;;;4.70;99.90;;;;;;4955510;29;20193;-78
2022/01/23 06:47:07;;;;;;;54.17;30.77;;;4.70;99.90;;;;;;4956385;29;20184;-80
2022/01/23 06:49:33;;;;;;;68.50;32.30;;;4.80;99.90;;;;;;4939499;29;20236;-79
2022/01/23 06:51:59;;;;;;;63.00;31.10;;;4.80;99.90;;;;;;4955010;29;20194;-80
2022/01/23 06:54:26;;;;;;;62.37;32.00;;;4.80;99.90;;;;;;4956826;29;20201;-77
2022/01/23 06:56:52;;;;;;;58.55;33.00;;;4.80;99.90;;;;;;4956459;28;20256;-80
2022/01/23 06:59:17;;;;;;;64.00;33.20;;;4.80;99.90;;;;;;4956365;29;20615;-77
2022/01/23 07:01:43;;;;;;;60.97;34.87;;;4.80;99.90;;;;;;4955299;28;20678;-79
2022/01/23 07:04:09;;;;;;;63.43;31.50;;;4.80;99.90;;;;;;4955161;29;20185;-78
2022/01/23 07:06:34;;;;;;;64.83;35.00;;;4.80;99.90;;;;;;4956266;29;20673;-78
2022/01/23 07:09:00;;;;;;;61.27;32.60;;;4.80;99.90;;;;;;4956115;28;20216;-79
2022/01/23 07:11:26;;;;;;;62.47;33.07;;;4.80;99.90;;;;;;4955733;29;20197;-78
2022/01/23 07:13:51;;;;;;;68.13;35.30;;;4.80;99.90;;;;;;4956355;29;20178;-77
2022/01/23 07:16:17;;;;;;;56.73;31.87;;;4.80;99.90;;;;;;4956277;29;20177;-78
2022/01/23 07:18:42;;;;;;;59.93;31.30;;;4.80;99.90;;;;;;4956196;29;20548;-79
2022/01/23 07:21:08;;;;;;;60.13;33.07;;;4.80;99.90;;;;;;4954507;29;20178;-77
2022/01/23 07:23:34;;;;;;;58.77;30.43;;;4.80;99.90;;;;;;4955782;29;20221;-78
2022/01/23 07:26:02;;;;;;;62.93;32.67;;;4.90;99.90;;;;;;4956074;28;20261;-79
2022/01/23 07:28:37;;;;;;;67.28;33.38;;;4.80;99.90;;;;;;4954760;29;20204;-76
2022/01/23 07:31:05;;;;;;;60.95;33.20;;;4.80;99.90;;;;;;4955564;28;20192;-80
2022/01/23 07:33:36;;;;;;;65.15;32.78;;;4.80;99.90;;;;;;4955578;28;20256;-80
2022/01/23 07:36:05;;;;;;;71.90;33.75;;;4.80;99.90;;;;;;4955939;28;20204;-78
2022/01/23 07:38:31;;;;;;;64.25;35.15;;;4.80;99.90;;;;;;4956062;28;20190;-79
2022/01/23 07:40:57;;;;;;;58.13;31.88;;;4.90;99.90;;;;;;4938621;29;20181;-80
2022/01/23 07:43:22;;;;;;;61.50;33.07;;;4.90;99.90;;;;;;4955805;29;20190;-78
2022/01/23 07:45:48;;;;;;;57.80;32.70;;;4.90;99.90;;;;;;4954641;29;20196;-79
2022/01/23 07:48:13;;;;;;;61.53;33.03;;;4.90;99.90;;;;;;4954723;29;20287;-78
2022/01/23 07:50:39;;;;;;;64.60;33.20;;;4.90;99.90;;;;;;4956311;29;20187;-76
2022/01/23 07:53:05;;;;;;;69.50;33.87;;;4.90;99.90;;;;;;4955219;29;20190;-80
2022/01/23 07:55:32;;;;;;;60.75;31.67;;;4.80;99.90;;;;;;4954294;29;20189;-77
2022/01/23 07:58:03;;;;;;;62.25;31.88;;;4.90;99.90;;;;;;4954103;29;20225;-78
2022/01/23 08:00:29;;;;;;;59.47;31.70;;;4.90;99.90;;;;;;4955620;28;20604;-79
2022/01/23 08:02:55;;;;;;;60.43;30.37;;;4.90;99.90;;;;;;4954956;29;20233;-79
2022/01/23 08:05:20;;;;;;;55.90;32.10;;;4.90;99.90;;;;;;4954346;29;20215;-81
2022/01/23 08:07:46;;;;;;;61.70;32.37;;;4.90;99.90;;;;;;4953919;29;20213;-78
2022/01/23 08:10:14;;;;;;;54.20;30.37;;;4.90;99.90;;;;;;4955243;29;20256;-77
2022/01/23 08:12:40;;;;;;;61.97;32.47;;;5.00;99.90;;;;;;4954795;28;20277;-78
2022/01/23 08:15:05;;;;;;;61.97;34.05;;;5.00;99.90;;;;;;4955150;28;20184;-78
2022/01/23 08:17:31;;;;;;;54.47;32.13;;;5.00;99.90;;;;;;4955226;29;20532;-78
2022/01/23 08:19:59;;;;;;;58.42;29.50;;;5.00;99.90;;;;;;4955122;29;20177;-79
2022/01/23 08:22:27;;;;;;;69.38;31.45;;;5.00;99.90;;;;;;4954810;28;20201;-80
2022/01/23 08:24:54;;;;;;;63.70;30.98;;;5.00;99.90;;;;;;4955115;28;20662;-79
2022/01/23 08:27:21;;;;;;;60.42;32.92;;;5.10;99.90;;;;;;4955141;28;20184;-78
2022/01/23 08:29:47;;;;;;;52.08;29.90;;;5.10;99.90;;;;;;4954914;28;20223;-80
2022/01/23 08:32:13;;;;;;;54.85;31.17;;;5.00;99.90;;;;;;4954676;29;20193;-79
2022/01/23 08:34:39;;;;;;;60.13;32.20;;;5.10;99.90;;;;;;4955090;29;20551;-79
2022/01/23 08:37:06;;;;;;;73.72;32.67;;;5.10;99.90;;;;;;4955021;28;20204;-79
2022/01/23 08:39:35;;;;;;;64.32;34.00;;;5.10;99.90;;;;;;4955157;28;20264;-78
2022/01/23 08:42:03;;;;;;;63.25;32.17;;;5.10;99.90;;;;;;4954595;28;20205;-78
2022/01/23 08:44:29;;;;;;;58.25;31.80;;;5.10;99.90;;;;;;4954949;28;20269;-78
2022/01/23 08:46:55;;;;;;;61.40;32.35;;;5.10;99.90;;;;;;4955012;28;20205;-79
2022/01/23 08:49:23;;;;;;;61.03;31.50;;;5.10;99.90;;;;;;4955128;29;20244;-80
2022/01/23 08:51:50;;;;;;;59.10;31.17;;;5.20;99.90;;;;;;4953486;29;20201;-78
2022/01/23 08:54:16;;;;;;;59.15;31.33;;;5.20;99.90;;;;;;4954866;28;20188;-77
2022/01/23 08:56:42;;;;;;;59.80;31.98;;;5.30;99.90;;;;;;4953988;29;20528;-79
2022/01/23 08:59:08;;;;;;;50.72;30.65;;;5.30;99.90;;;;;;4955022;28;20181;-79
2022/01/23 09:01:35;;;;;;;58.13;30.50;;;5.30;99.90;;;;;;4954562;29;20250;-80
2022/01/23 09:04:02;;;;;;;56.38;32.00;;;5.30;99.90;;;;;;4954975;28;20546;-78
2022/01/23 09:06:27;;;;;;;58.40;30.98;;;5.40;99.90;;;;;;4954790;28;20181;-79
2022/01/23 09:08:54;;;;;;;57.37;30.50;;;5.40;99.90;;;;;;4954762;29;20256;-80
2022/01/23 09:11:53;;;;;;;56.15;30.33;;;5.40;99.90;;;;;;4954425;28;20205;-78
2022/01/23 09:14:07;;;;;;;61.25;31.15;;;5.40;99.90;;;;;;4954274;29;20217;-78
2022/01/23 09:16:41;;;;;;;64.03;32.27;;;5.40;99.90;;;;;;4954686;29;20205;-78
2022/01/23 09:19:07;;;;;;;51.88;28.90;;;5.40;99.90;;;;;;4954928;28;20543;-79
2022/01/23 09:21:34;;;;;;;56.15;30.50;;;5.40;99.90;;;;;;4953121;29;20199;-79
2022/01/23 09:24:00;;;;;;;51.28;29.70;;;5.40;99.90;;;;;;4954062;28;20661;-79
2022/01/23 09:26:26;;;;;;;51.90;29.40;;;5.40;99.90;;;;;;4958138;29;20200;-80
2022/01/23 09:28:55;;;;;;;52.30;28.48;;;5.40;99.90;;;;;;4956800;29;20479;-79
2022/01/23 09:31:34;;;;;;;54.28;30.88;;;5.50;99.90;;;;;;4960225;28;20576;-77
2022/01/23 09:34:01;;;;;;;52.85;29.25;;;5.40;99.90;;;;;;4960457;28;20542;-79
2022/01/23 09:36:28;;;;;;;51.17;28.65;;;5.50;99.90;;;;;;4957845;28;20173;-80
2022/01/23 09:38:54;;;;;;;55.75;31.67;;;5.50;99.90;;;;;;4957999;28;20185;-79
2022/01/23 09:41:24;;;;;;;63.07;30.80;;;5.50;99.90;;;;;;4957625;29;20205;-77
2022/01/23 09:43:50;;;;;;;48.03;28.30;;;5.60;99.90;;;;;;4956860;28;20516;-77
2022/01/23 09:46:16;;;;;;;54.67;30.65;;;5.60;99.90;;;;;;4957886;28;20183;-76
2022/01/23 09:48:46;;;;;;;57.43;30.07;;;5.60;99.90;;;;;;4956496;29;20217;-78
2022/01/23 09:51:13;;;;;;;58.92;31.88;;;5.60;99.90;;;;;;4957533;28;20260;-79
2022/01/23 09:53:43;;;;;;;54.50;29.98;;;5.60;99.90;;;;;;4957752;28;20196;-76
2022/01/23 09:56:09;;;;;;;51.22;29.55;;;5.60;99.90;;;;;;4957760;28;20201;-80
2022/01/23 09:58:38;;;;;;;50.05;31.02;;;5.60;99.90;;;;;;4957419;28;20205;-78
2022/01/23 10:01:04;;;;;;;58.55;29.95;;;5.60;99.90;;;;;;4957235;28;20272;-78
2022/01/23 10:03:29;;;;;;;53.50;29.67;;;5.60;99.90;;;;;;4956185;29;20224;-79
2022/01/23 10:05:56;;;;;;;50.80;28.77;;;5.50;99.90;;;;;;4957527;29;20426;-78
2022/01/23 10:08:23;;;;;;;52.85;29.90;;;5.60;99.90;;;;;;4957610;28;20270;-77
2022/01/23 10:10:53;;;;;;;51.83;29.40;;;5.70;99.90;;;;;;4957219;28;20177;-77
2022/01/23 10:13:24;;;;;;;50.83;28.38;;;5.70;99.90;;;;;;4956196;29;20193;-79
2022/01/23 10:15:50;;;;;;;49.38;28.92;;;5.60;99.90;;;;;;4957218;28;20545;-79
2022/01/23 10:18:17;;;;;;;49.33;29.97;;;5.50;99.90;;;;;;4957187;28;20261;-79
2022/01/23 10:20:43;;;;;;;48.28;26.60;;;5.50;99.90;;;;;;4956735;28;20181;-80
2022/01/23 10:23:10;;;;;;;53.30;29.43;;;5.50;99.90;;;;;;4956831;29;20217;-78
2022/01/23 10:25:41;;;;;;;51.20;29.58;;;5.60;99.90;;;;;;4957037;28;20591;-77
2022/01/23 10:28:11;;;;;;;54.90;30.02;;;5.70;99.90;;;;;;4957039;28;20564;-78
2022/01/23 10:30:43;;;;;;;57.35;32.00;;;5.80;99.90;;;;;;4956906;28;20166;-79
2022/01/23 10:33:15;;;;;;;59.00;32.25;;;5.80;99.90;;;;;;4956839;28;20200;-77
2022/01/23 10:36:19;;;;;;;56.25;31.13;;;5.90;99.90;;;;;;4955717;28;20542;-79
2022/01/23 10:38:50;;;;;;;58.88;32.05;;;5.90;99.90;;;;;;4956810;28;20180;-77
2022/01/23 10:49:50;;;;;;;55.65;35.97;;;6.00;99.90;;;;;;4956899;28;20249;-77
2022/01/23 10:52:38;;;;;;;50.85;30.35;;;6.00;99.90;;;;;;4956436;29;20197;-78
2022/01/23 10:55:13;;;;;;;53.00;30.88;;;6.10;99.90;;;;;;4956594;28;20182;-77
2022/01/23 10:57:46;;;;;;;54.35;29.02;;;6.10;99.90;;;;;;4956709;29;20589;-79
2022/01/23 11:00:25;;;;;;;48.80;29.92;;;6.00;99.90;;;;;;4956690;28;20178;-76
2022/01/23 11:02:51;;;;;;;50.17;29.88;;;6.10;99.90;;;;;;4956319;28;20219;-79
2022/01/23 11:05:22;;;;;;;46.00;27.15;;;6.10;99.90;;;;;;4955331;29;20219;-78
2022/01/23 11:07:49;;;;;;;48.72;27.67;;;6.10;99.90;;;;;;4956338;28;20198;-80
2022/01/23 11:10:18;;;;;;;49.92;28.85;;;6.20;99.90;;;;;;4956478;28;20183;-78
2022/01/23 11:18:14;;;;;;;48.90;26.20;;;6.30;99.90;;;;;;4956029;29;20229;-77
2022/01/23 11:20:48;;;;;;;51.35;26.95;;;6.30;99.90;;;;;;4955807;28;20260;-77
2022/01/23 11:23:14;;;;;;;46.50;24.10;;;6.30;99.90;;;;;;4955836;28;20285;-77
2022/01/23 11:25:42;;;;;;;50.97;26.73;;;6.30;99.90;;;;;;4955919;29;20256;-80
2022/01/23 11:28:08;;;;;;;41.72;25.73;;;6.20;99.90;;;;;;4955948;28;20208;-78
2022/01/23 11:30:43;;;;;;;43.87;26.63;;;6.20;99.90;;;;;;4956085;28;20186;-80
2022/01/23 11:33:11;;;;;;;45.47;25.40;;;6.20;99.90;;;;;;4955791;28;20596;-77
2022/01/23 11:35:37;;;;;;;44.55;26.02;;;6.30;99.90;;;;;;4955976;28;20578;-78
2022/01/23 11:38:10;;;;;;;42.60;24.10;;;6.30;99.90;;;;;;4955678;28;20186;-79
2022/01/23 11:54:39;;;;;;;36.60;22.92;;;6.30;99.90;;;;;;4955717;29;20682;-76
2022/01/23 11:57:38;;;;;;;40.88;22.58;;;6.40;99.90;;;;;;4955508;29;20204;-75
2022/01/23 12:00:18;;;;;;;43.58;24.13;;;6.30;99.90;;;;;;4955674;28;20171;-79
2022/01/23 12:03:04;;;;;;;45.38;23.48;;;6.30;99.90;;;;;;4953831;29;20599;-77
2022/01/23 12:05:29;;;;;;;40.13;23.70;;;6.40;99.90;;;;;;4955239;28;20195;-77
2022/01/23 12:08:29;;;;;;;37.83;21.20;;;6.30;99.90;;;;;;4954267;29;20217;-80
2022/01/23 12:16:27;;;;;;;39.70;21.60;;;6.20;99.90;;;;;;4955272;28;20595;-78
2022/01/23 12:19:18;;;;;;;35.63;20.35;;;6.20;99.90;;;;;;4955120;28;20192;-77
2022/01/23 12:21:45;;;;;;;39.33;20.00;;;6.30;99.90;;;;;;4948550;29;20642;-78
2022/01/23 12:24:14;;;;;;;37.55;19.95;;;6.20;99.90;;;;;;4955102;28;20204;-79
2022/01/23 12:26:43;;;;;;;35.80;22.08;;;6.20;99.90;;;;;;4954986;28;20183;-79
2022/01/23 12:29:15;;;;;;;41.90;21.42;;;6.40;99.90;;;;;;4954910;28;20207;-78
2022/01/23 12:31:42;;;;;;;34.15;19.92;;;6.40;99.90;;;;;;4954475;28;20598;-78
2022/01/23 12:34:08;;;;;;;37.20;20.88;;;6.30;99.90;;;;;;4954740;28;20273;-77
2022/01/23 12:36:37;;;;;;;46.20;29.30;;;6.30;99.90;;;;;;4954797;28;20176;-79
2022/01/23 12:39:09;;;;;;;36.28;24.50;;;6.30;99.90;;;;;;4954879;28;20186;-77
2022/01/23 12:42:02;;;;;;;51.45;28.23;;;6.40;99.90;;;;;;4954669;29;20257;-78
2022/01/23 12:44:28;;;;;;;49.40;28.05;;;6.50;99.90;;;;;;4954950;28;20171;-77
2022/01/23 12:47:03;;;;;;;45.10;25.40;;;6.60;99.90;;;;;;4953365;29;20245;-80
2022/01/23 12:49:31;;;;;;;37.50;24.52;;;6.60;99.90;;;;;;4955122;28;20198;-78
2022/01/23 12:52:05;;;;;;;39.47;21.15;;;6.70;99.90;;;;;;4954413;28;20728;-80
2022/01/23 12:54:56;;;;;;;37.42;21.95;;;6.80;99.90;;;;;;4954750;29;20211;-78
2022/01/23 12:57:39;;;;;;;39.35;22.05;;;6.80;99.90;;;;;;4945725;29;20193;-78
2022/01/23 13:00:10;;;;;;;40.90;24.23;;;6.80;99.90;;;;;;4956874;28;20183;-82
2022/01/23 13:02:43;;;;;;;38.58;22.13;;;6.60;99.90;;;;;;4958126;28;20197;-79
2022/01/23 13:05:10;;;;;;;36.38;21.00;;;6.70;99.90;;;;;;4958383;28;20172;-81
2022/01/23 13:10:28;;;;;;;32.47;20.20;;;6.90;99.90;;;;;;4958262;28;20169;-80
2022/01/23 13:13:06;;;;;;;35.28;19.80;;;6.80;99.90;;;;;;4957769;28;20206;-83
2022/01/23 13:30:00;;;;;;;38.72;22.40;;;6.90;99.90;;;;;;4958001;28;20204;-81
2022/01/23 13:32:00;;;;;;;39.45;22.45;;;7.00;99.90;;;;;;4948605;29;20217;-79
2022/01/23 13:34:37;;;;;;;36.53;23.02;;;7.00;99.90;;;;;;4957708;28;20184;-81
2022/01/23 13:37:10;;;;;;;35.10;22.02;;;7.00;99.90;;;;;;4957792;28;20546;-81
2022/01/23 13:39:45;;;;;;;43.55;23.23;;;7.10;99.90;;;;;;4957776;28;20484;-82
2022/01/23 13:42:33;;;;;;;34.25;21.42;;;7.10;99.90;;;;;;4958510;28;20200;-81
2022/01/23 13:59:28;;;;;;;39.28;21.75;;;7.20;99.90;;;;;;4958247;28;20189;-83
2022/01/23 14:02:14;;;;;;;34.60;21.30;;;7.20;99.90;;;;;;4957670;28;20249;-83
2022/01/23 14:04:47;;;;;;;30.83;18.95;;;7.30;99.90;;;;;;4958336;28;20176;-81
2022/01/23 14:07:21;;;;;;;30.17;19.42;;;7.20;99.90;;;;;;4957656;28;20184;-82
2022/01/23 14:09:47;;;;;;;37.05;20.30;;;7.30;99.90;;;;;;4957207;28;20204;-80
2022/01/23 14:12:15;;;;;;;35.60;22.30;;;7.20;99.90;;;;;;4957501;28;20198;-83
2022/01/23 14:14:54;;;;;;;30.67;19.55;;;7.20;99.90;;;;;;4957667;28;20530;-79
2022/01/23 14:17:21;;;;;;;26.02;16.50;;;7.20;99.90;;;;;;4957506;28;20242;-79
2022/01/23 14:19:57;;;;;;;29.42;19.30;;;7.20;99.90;;;;;;4957603;28;20185;-83
2022/01/23 14:22:37;;;;;;;30.92;18.42;;;7.10;99.90;;;;;;4956903;29;20201;-81
2022/01/23 14:25:12;;;;;;;32.17;17.63;;;7.10;99.90;;;;;;4957327;28;20213;-82
2022/01/23 14:27:41;;;;;;;27.02;16.50;;;7.10;99.90;;;;;;4956076;29;20283;-81
2022/01/23 14:30:10;;;;;;;21.88;15.50;;;7.10;99.90;;;;;;4957443;28;20583;-81
2022/01/23 14:32:45;;;;;;;23.45;15.85;;;7.20;99.90;;;;;;4956970;28;20245;-80
2022/01/23 14:35:20;;;;;;;25.80;15.07;;;7.20;99.90;;;;;;4957125;28;20185;-81
2022/01/23 14:37:48;;;;;;;26.20;15.90;;;7.20;99.90;;;;;;4958102;29;20242;-81
2022/01/23 14:40:19;;;;;;;28.52;16.83;;;7.20;99.90;;;;;;4957652;28;20692;-83
2022/01/23 14:43:12;;;;;;;29.65;17.15;;;7.20;99.90;;;;;;4956761;29;20193;-82
2022/01/23 14:45:43;;;;;;;32.28;18.73;;;7.20;99.90;;;;;;4958619;28;20184;-79
2022/01/23 14:48:11;;;;;;;34.15;20.67;;;7.10;99.90;;;;;;4958294;28;20666;-82
2022/01/23 14:50:39;;;;;;;29.63;20.05;;;7.10;99.90;;;;;;4958355;28;20186;-81
2022/01/23 14:53:15;;;;;;;31.60;19.15;;;7.10;99.90;;;;;;4955804;29;20198;-82
2022/01/23 14:55:47;;;;;;;34.83;20.20;;;7.10;99.90;;;;;;4955929;29;20267;-80
2022/01/23 14:58:18;;;;;;;36.50;22.05;;;7.00;99.90;;;;;;4956899;28;20182;-80
2022/01/23 15:00:43;;;;;;;40.92;24.75;;;7.00;99.90;;;;;;4956602;28;20186;-80
2022/01/23 15:03:09;;;;;;;33.50;21.03;;;7.00;99.90;;;;;;4956713;29;20200;-82
2022/01/23 15:05:38;;;;;;;33.57;20.93;;;7.00;99.90;;;;;;4956713;29;20184;-83
2022/01/23 15:08:05;;;;;;;41.05;21.98;;;7.00;99.90;;;;;;4957984;28;20201;-83
2022/01/23 15:10:31;;;;;;;38.65;22.80;;;7.00;99.90;;;;;;4958796;28;20178;-80
2022/01/23 15:12:58;;;;;;;35.83;21.77;;;6.90;99.90;;;;;;4959977;29;20200;-82
2022/01/23 15:15:24;;;;;;;41.28;24.17;;;7.00;99.90;;;;;;4956525;28;20606;-82
2022/01/23 15:17:49;;;;;;;41.33;24.42;;;7.00;99.90;;;;;;4956318;28;20213;-81
2022/01/23 15:20:16;;;;;;;37.23;22.17;;;6.90;99.90;;;;;;4956400;29;20208;-82
2022/01/23 15:22:42;;;;;;;35.13;21.67;;;7.00;99.90;;;;;;4955153;28;20203;-80
2022/01/23 15:25:10;;;;;;;37.80;24.90;;;7.00;99.90;;;;;;4956663;28;20193;-81
2022/01/23 15:27:36;;;;;;;33.28;21.92;;;6.80;99.90;;;;;;4955193;29;20312;-81
2022/01/23 15:30:04;;;;;;;32.90;21.33;;;6.70;99.90;;;;;;4956559;29;20294;-82
2022/01/23 15:32:30;;;;;;;32.65;21.67;;;6.80;99.90;;;;;;4938516;29;20197;-81
2022/01/23 15:34:55;;;;;;;36.57;21.87;;;6.80;99.90;;;;;;4956150;29;20196;-82
2022/01/23 15:37:21;;;;;;;35.10;21.20;;;6.80;99.90;;;;;;4955930;29;20260;-80
2022/01/23 15:39:47;;;;;;;41.20;25.03;;;6.70;99.90;;;;;;4938770;29;20641;-82
2022/01/23 15:42:12;;;;;;;42.07;25.90;;;6.70;99.90;;;;;;4955392;29;20231;-82
2022/01/23 15:44:40;;;;;;;35.23;21.80;;;6.70;99.90;;;;;;4955674;29;20666;-82
2022/01/23 15:47:06;;;;;;;34.58;20.75;;;6.70;99.90;;;;;;4955742;28;20282;-79
2022/01/23 15:49:31;;;;;;;39.80;26.07;;;6.60;99.90;;;;;;4955599;28;20217;-82
2022/01/23 15:51:57;;;;;;;46.77;26.23;;;6.60;99.90;;;;;;4955700;28;20443;-79
2022/01/23 15:54:23;;;;;;;38.23;23.23;;;6.60;99.90;;;;;;4956305;28;20627;-80
2022/01/23 15:56:50;;;;;;;39.60;24.57;;;6.60;99.90;;;;;;4956094;29;20258;-79
2022/01/23 15:59:17;;;;;;;40.35;25.25;;;6.50;99.90;;;;;;4955878;28;20635;-79
2022/01/23 16:01:46;;;;;;;36.65;23.20;;;6.60;99.90;;;;;;4954297;29;20257;-82
2022/01/23 16:04:15;;;;;;;43.65;27.20;;;6.50;99.90;;;;;;4956041;28;20177;-82
2022/01/23 16:06:40;;;;;;;40.92;27.25;;;6.50;99.90;;;;;;4954692;29;20696;-80
2022/01/23 16:09:07;;;;;;;42.43;28.87;;;6.50;99.90;;;;;;4955513;29;20298;-79
2022/01/23 16:11:32;;;;;;;42.22;25.02;;;6.40;99.90;;;;;;4955060;28;20212;-80